Time;durP1;ratioP1;P1;durP2;ratioP2;P2;SDS_P1;SDS_P2;PMS_P1;PMS_P2;Temp;Humidity;BMP_temperature;BMP_pressure;BME280_temperature;BME280_humidity;BME280_pressure;Samples;Min_cycle;Max_cycle;Signal;HPM_P1;HPM_P2
2023/08/28 00:01:18;;;;;;;5.93;4.35;;;;;;;-140.66;100.00;55571.53;5114355;28;20115;-69
2023/08/28 00:05:03;;;;;;;5.40;4.28;;;;;;;-140.66;100.00;55571.53;5127087;28;20028;-69
2023/08/28 00:08:47;;;;;;;6.45;4.78;;;;;;;-140.66;100.00;55571.53;5113558;28;20027;-70
2023/08/28 00:12:36;;;;;;;10.82;4.75;;;;;;;-140.66;100.00;55571.53;5113565;28;20019;-69
2023/08/28 00:16:20;;;;;;;10.85;5.40;;;;;;;-140.66;100.00;55571.53;5115054;28;20043;-69
2023/08/28 00:20:08;;;;;;;6.47;5.03;;;;;;;-140.66;100.00;55571.53;5113698;28;20347;-70
2023/08/28 00:23:52;;;;;;;7.10;5.32;;;;;;;-140.66;100.00;55571.53;5113479;28;20028;-70
2023/08/28 00:27:36;;;;;;;6.88;4.80;;;;;;;-140.66;100.00;55571.53;5113644;28;20034;-69
2023/08/28 00:31:20;;;;;;;6.25;5.43;;;;;;;-140.66;100.00;55571.53;5113628;28;20028;-69
2023/08/28 00:35:05;;;;;;;12.02;5.47;;;;;;;-140.66;100.00;55571.53;5113865;28;20026;-69
2023/08/28 00:38:49;;;;;;;18.27;6.28;;;;;;;-140.66;100.00;55571.53;5114134;28;20093;-70
2023/08/28 00:42:33;;;;;;;12.57;5.78;;;;;;;-140.66;100.00;55571.53;5126627;28;20020;-70
2023/08/28 00:46:18;;;;;;;8.45;5.70;;;;;;;-140.66;100.00;55571.53;5114825;28;20080;-70
2023/08/28 00:50:03;;;;;;;9.10;5.55;;;;;;;-140.66;100.00;55571.53;5114455;28;20059;-69
2023/08/28 00:53:48;;;;;;;9.68;6.18;;;;;;;-140.66;100.00;55571.53;5114068;28;20103;-70
2023/08/28 00:57:33;;;;;;;8.68;6.90;;;;;;;-140.66;100.00;55571.53;5114386;28;20036;-70
2023/08/28 01:01:17;;;;;;;8.10;5.93;;;;;;;-140.66;100.00;55571.53;5113369;28;20111;-69
2023/08/28 01:05:02;;;;;;;6.80;4.95;;;;;;;-140.66;100.00;55571.53;5116786;28;20088;-70
2023/08/28 01:08:59;;;;;;;7.15;5.18;;;;;;;-140.66;100.00;55571.53;5116029;28;20433;-70
2023/08/28 01:12:51;;;;;;;8.60;5.70;;;;;;;-140.66;100.00;55571.53;5116922;28;20053;-70
2023/08/28 01:16:36;;;;;;;7.93;5.90;;;;;;;-140.66;100.00;55571.53;5117281;28;20019;-69
2023/08/28 01:20:33;;;;;;;9.80;5.93;;;;;;;-140.66;100.00;55571.53;5117092;28;20164;-69
2023/08/28 01:24:25;;;;;;;6.65;5.70;;;;;;;-140.66;100.00;55571.53;5117135;28;20024;-69
2023/08/28 01:28:09;;;;;;;8.15;5.40;;;;;;;-140.66;100.00;55571.53;5116331;28;20057;-69
2023/08/28 01:31:54;;;;;;;7.90;5.38;;;;;;;-140.66;100.00;55571.53;5117848;28;20169;-69
2023/08/28 01:35:38;;;;;;;8.30;5.10;;;;;;;-140.66;100.00;55571.53;5129954;27;20028;-69
2023/08/28 01:39:38;;;;;;;6.78;5.50;;;;;;;-140.66;100.00;55571.53;5116838;28;20028;-69
2023/08/28 01:43:24;;;;;;;9.13;6.18;;;;;;;-140.66;100.00;55571.53;5117101;28;20453;-69
2023/08/28 01:47:09;;;;;;;7.75;6.15;;;;;;;-140.66;100.00;55571.53;5116130;28;20035;-69
2023/08/28 01:50:53;;;;;;;8.45;6.03;;;;;;;-140.66;100.00;55571.53;5116957;28;20339;-69
2023/08/28 01:54:38;;;;;;;9.93;6.07;;;;;;;-140.66;100.00;55571.53;5117579;28;20102;-69
2023/08/28 01:58:22;;;;;;;9.02;5.88;;;;;;;-140.66;100.00;55571.53;5116715;28;20031;-69
2023/08/28 02:02:06;;;;;;;11.18;6.07;;;;;;;-140.66;100.00;55571.53;5117081;28;20054;-70
2023/08/28 02:05:50;;;;;;;10.48;6.63;;;;;;;-140.66;100.00;55571.53;5115687;28;20026;-69
2023/08/28 02:09:35;;;;;;;9.52;7.25;;;;;;;-140.66;100.00;55571.53;5115774;28;20031;-69
2023/08/28 02:13:19;;;;;;;9.15;7.45;;;;;;;-140.66;100.00;55571.53;5115429;28;20051;-69
2023/08/28 02:17:04;;;;;;;10.98;7.10;;;;;;;-140.66;100.00;55571.53;5115262;28;20024;-69
2023/08/28 02:20:51;;;;;;;10.57;7.03;;;;;;;-140.66;100.00;55571.53;5115325;28;20050;-69
2023/08/28 02:24:35;;;;;;;9.95;7.15;;;;;;;-140.66;100.00;55571.53;5115981;28;20368;-69
2023/08/28 02:28:19;;;;;;;11.57;7.15;;;;;;;-140.66;100.00;55571.53;5115129;28;20107;-69
2023/08/28 02:32:04;;;;;;;12.88;7.57;;;;;;;-140.66;100.00;55571.53;5115511;28;20399;-69
2023/08/28 02:35:48;;;;;;;9.30;7.68;;;;;;;-140.66;100.00;55571.53;5115082;28;20415;-69
2023/08/28 02:39:32;;;;;;;10.45;7.13;;;;;;;-140.66;100.00;55571.53;5114956;28;20408;-70
2023/08/28 02:43:16;;;;;;;10.88;7.57;;;;;;;-140.66;100.00;55571.53;5115507;28;20023;-69
2023/08/28 02:47:00;;;;;;;10.57;7.53;;;;;;;-140.66;100.00;55571.53;5115209;28;20335;-69
2023/08/28 02:50:48;;;;;;;10.73;7.68;;;;;;;-140.66;100.00;55571.53;5115810;28;20108;-69
2023/08/28 02:54:32;;;;;;;9.57;7.38;;;;;;;-140.66;100.00;55571.53;5115374;28;20027;-71
2023/08/28 02:58:16;;;;;;;9.88;7.07;;;;;;;-140.66;100.00;55571.53;5129017;28;20548;-69
2023/08/28 03:02:01;;;;;;;9.52;7.43;;;;;;;-140.66;100.00;55571.53;5119469;28;20031;-69
2023/08/28 03:05:48;;;;;;;13.07;6.72;;;;;;;-140.66;100.00;55571.53;5115291;28;20024;-69
2023/08/28 03:09:32;;;;;;;9.48;7.05;;;;;;;-140.66;100.00;55571.53;5115786;28;20024;-70
2023/08/28 03:13:16;;;;;;;12.93;6.90;;;;;;;-140.66;100.00;55571.53;5114793;28;20110;-69
2023/08/28 03:17:00;;;;;;;10.48;6.85;;;;;;;-140.66;100.00;55571.53;5114522;28;20114;-69
2023/08/28 03:20:44;;;;;;;12.57;7.00;;;;;;;-140.66;100.00;55571.53;5114148;28;20031;-69
2023/08/28 03:24:29;;;;;;;9.43;6.53;;;;;;;-140.66;100.00;55571.53;5115133;28;20034;-68
2023/08/28 03:28:13;;;;;;;11.70;7.32;;;;;;;-140.66;100.00;55571.53;5115254;28;20083;-69
2023/08/28 03:31:58;;;;;;;11.10;6.95;;;;;;;-140.66;100.00;55571.53;5113974;28;20384;-70
2023/08/28 03:35:42;;;;;;;11.80;7.63;;;;;;;-140.66;100.00;55571.53;5113069;28;20027;-69
2023/08/28 03:39:26;;;;;;;18.23;8.68;;;;;;;-140.66;100.00;55571.53;5114396;28;20042;-69
2023/08/28 03:43:11;;;;;;;15.80;8.18;;;;;;;-140.66;100.00;55571.53;5114345;28;20031;-69
2023/08/28 03:46:55;;;;;;;17.10;8.15;;;;;;;-140.66;100.00;55571.53;5115175;28;20059;-69
2023/08/28 03:50:40;;;;;;;18.65;8.80;;;;;;;-140.66;100.00;55571.53;5114053;28;20040;-69
2023/08/28 03:54:24;;;;;;;15.07;7.72;;;;;;;-140.66;100.00;55571.53;5114382;28;20449;-68
2023/08/28 03:58:09;;;;;;;11.45;7.95;;;;;;;-140.66;100.00;55571.53;5113550;28;20041;-69
2023/08/28 04:01:54;;;;;;;10.55;7.72;;;;;;;-140.66;100.00;55571.53;5114629;28;20028;-69
2023/08/28 04:05:38;;;;;;;11.20;7.93;;;;;;;-140.66;100.00;55571.53;5113874;28;20035;-69
2023/08/28 04:09:22;;;;;;;13.98;8.18;;;;;;;-140.66;100.00;55571.53;5114369;28;20023;-69
2023/08/28 04:13:08;;;;;;;16.10;8.73;;;;;;;-140.66;100.00;55571.53;5113669;28;20111;-69
2023/08/28 04:16:53;;;;;;;10.27;8.23;;;;;;;-140.66;100.00;55571.53;5126942;28;20023;-69
2023/08/28 04:20:37;;;;;;;13.98;8.10;;;;;;;-140.66;100.00;55571.53;5113333;28;20037;-68
2023/08/28 04:24:21;;;;;;;17.65;8.77;;;;;;;-140.66;100.00;55571.53;5114227;28;20067;-68
2023/08/28 04:28:06;;;;;;;12.38;8.75;;;;;;;-140.66;100.00;55571.53;5113213;28;20031;-69
2023/08/28 04:31:50;;;;;;;19.20;8.88;;;;;;;-140.66;100.00;55571.53;5114228;28;20023;-69
2023/08/28 04:35:34;;;;;;;20.13;8.52;;;;;;;-140.66;100.00;55571.53;5113976;28;20015;-69
2023/08/28 04:39:20;;;;;;;15.15;8.95;;;;;;;-140.66;100.00;55571.53;5117173;28;20079;-69
2023/08/28 04:43:04;;;;;;;13.07;9.48;;;;;;;-140.66;100.00;55571.53;5117507;28;20369;-69
2023/08/28 04:46:48;;;;;;;16.05;8.32;;;;;;;-140.66;100.00;55571.53;5130876;27;20023;-69
2023/08/28 04:50:32;;;;;;;25.60;8.82;;;;;;;-140.66;100.00;55571.53;5117226;28;20530;-69
2023/08/28 04:54:16;;;;;;;15.30;8.75;;;;;;;-140.66;100.00;55571.53;5117530;28;20441;-69
2023/08/28 04:58:01;;;;;;;17.35;8.52;;;;;;;-140.66;100.00;55571.53;5115362;28;20114;-69
2023/08/28 05:01:45;;;;;;;16.80;8.93;;;;;;;-140.66;100.00;55571.53;5116935;28;20120;-69
2023/08/28 05:05:29;;;;;;;19.55;8.93;;;;;;;-140.66;100.00;55571.53;5118262;28;20023;-69
2023/08/28 05:09:14;;;;;;;19.00;8.70;;;;;;;-140.66;100.00;55571.53;5117853;28;20449;-69
2023/08/28 05:12:59;;;;;;;18.60;9.00;;;;;;;-140.66;100.00;55571.53;5117133;28;20118;-69
2023/08/28 05:16:43;;;;;;;14.07;8.73;;;;;;;-140.66;100.00;55571.53;5117691;28;20027;-69
2023/08/28 05:20:28;;;;;;;11.23;8.40;;;;;;;-140.66;100.00;55571.53;5117426;28;20027;-69
2023/08/28 05:24:12;;;;;;;13.95;8.98;;;;;;;-140.66;100.00;55571.53;5130027;27;20028;-70
2023/08/28 05:27:57;;;;;;;14.13;8.80;;;;;;;-140.66;100.00;55571.53;5118887;28;20032;-69
2023/08/28 05:31:41;;;;;;;12.88;8.90;;;;;;;-140.66;100.00;55571.53;5117103;28;20482;-69
2023/08/28 05:35:25;;;;;;;15.52;9.48;;;;;;;-140.66;100.00;55571.53;5117968;28;20027;-69
2023/08/28 05:39:09;;;;;;;13.82;9.10;;;;;;;-140.66;100.00;55571.53;5120026;28;20070;-69
2023/08/28 05:42:54;;;;;;;14.75;9.00;;;;;;;-140.66;100.00;55571.53;5119102;28;20082;-70
2023/08/28 05:46:38;;;;;;;15.10;9.63;;;;;;;-140.66;100.00;55571.53;5133883;27;20052;-69
2023/08/28 05:50:22;;;;;;;15.55;9.73;;;;;;;-140.66;100.00;55571.53;5118450;28;20508;-69
2023/08/28 05:54:06;;;;;;;11.13;8.27;;;;;;;-140.66;100.00;55571.53;5121137;28;20041;-69
2023/08/28 05:57:50;;;;;;;13.68;8.55;;;;;;;-140.66;100.00;55571.53;5121181;28;20439;-70
2023/08/28 06:01:35;;;;;;;14.10;7.95;;;;;;;-140.66;100.00;55571.53;5117165;28;20015;-69
2023/08/28 06:05:19;;;;;;;15.88;8.10;;;;;;;-140.66;100.00;55571.53;5117737;28;20514;-69
2023/08/28 06:09:04;;;;;;;10.90;7.20;;;;;;;-140.66;100.00;55571.53;5117852;28;20027;-70
2023/08/28 06:12:48;;;;;;;13.90;7.93;;;;;;;-140.66;100.00;55571.53;5117718;28;20028;-70
2023/08/28 06:16:33;;;;;;;14.60;7.45;;;;;;;-140.66;100.00;55571.53;5115736;28;20034;-69
2023/08/28 06:20:17;;;;;;;11.70;7.78;;;;;;;-140.66;100.00;55571.53;5115611;28;20027;-70
2023/08/28 06:24:02;;;;;;;16.73;7.38;;;;;;;-140.66;100.00;55571.53;5115347;28;20024;-70
2023/08/28 06:27:46;;;;;;;12.10;8.23;;;;;;;-140.66;100.00;55571.53;5115018;28;20038;-69
2023/08/28 06:31:30;;;;;;;12.90;7.07;;;;;;;-140.66;100.00;55571.53;5116050;28;20107;-69
2023/08/28 06:35:15;;;;;;;11.20;7.80;;;;;;;-140.66;100.00;55571.53;5116396;28;20400;-69
2023/08/28 06:38:59;;;;;;;13.73;7.15;;;;;;;-140.66;100.00;55571.53;5114698;28;20055;-69
2023/08/28 06:42:43;;;;;;;13.23;6.65;;;;;;;-140.66;100.00;55571.53;5115404;28;20031;-70
2023/08/28 06:46:28;;;;;;;11.80;8.18;;;;;;;-140.66;100.00;55571.53;5115235;28;20038;-68
2023/08/28 06:50:12;;;;;;;16.58;8.55;;;;;;;-140.66;100.00;55571.53;5114933;28;20051;-70
2023/08/28 06:53:57;;;;;;;14.68;8.05;;;;;;;-140.66;100.00;55571.53;5115593;28;20106;-70
2023/08/28 06:57:41;;;;;;;9.93;7.47;;;;;;;-140.66;100.00;55571.53;5114488;28;20027;-70
2023/08/28 07:01:25;;;;;;;14.38;7.55;;;;;;;-140.66;100.00;55571.53;5114608;28;20115;-69
2023/08/28 07:05:09;;;;;;;11.82;7.00;;;;;;;-140.66;100.00;55571.53;5114244;28;20063;-69
2023/08/28 07:08:54;;;;;;;12.95;7.13;;;;;;;-140.66;100.00;55571.53;5114203;28;20034;-70
2023/08/28 07:12:38;;;;;;;12.10;7.30;;;;;;;-140.66;100.00;55571.53;5113988;28;20463;-69
2023/08/28 07:16:28;;;;;;;10.93;7.43;;;;;;;-140.66;100.00;55571.53;5115076;28;20382;-69
2023/08/28 07:20:12;;;;;;;12.52;7.22;;;;;;;-140.66;100.00;55571.53;5115453;28;20106;-69
2023/08/28 07:23:57;;;;;;;9.88;6.88;;;;;;;-140.66;100.00;55571.53;5114637;28;20028;-69
2023/08/28 07:27:41;;;;;;;12.27;6.95;;;;;;;-140.66;100.00;55571.53;5115030;28;20028;-69
2023/08/28 07:31:25;;;;;;;9.50;6.78;;;;;;;-140.66;100.00;55571.53;5115048;28;20054;-70
2023/08/28 07:35:09;;;;;;;10.82;7.32;;;;;;;-140.66;100.00;55571.53;5113504;28;20069;-69
2023/08/28 07:38:54;;;;;;;8.73;6.60;;;;;;;-140.66;100.00;55571.53;5114556;28;20030;-69
2023/08/28 07:42:38;;;;;;;12.35;6.70;;;;;;;-140.66;100.00;55571.53;5114047;28;20445;-71
2023/08/28 07:46:22;;;;;;;14.13;6.70;;;;;;;-140.66;100.00;55571.53;5114031;28;20027;-69
2023/08/28 07:50:07;;;;;;;13.93;6.50;;;;;;;-140.66;100.00;55571.53;5113920;28;20032;-70
2023/08/28 07:53:54;;;;;;;7.63;5.80;;;;;;;-140.66;100.00;55571.53;5115326;28;20066;-70
2023/08/28 07:57:38;;;;;;;14.20;7.22;;;;;;;-140.66;100.00;55571.53;5114814;28;20023;-70
2023/08/28 08:01:23;;;;;;;13.80;9.40;;;;;;;-140.66;100.00;55571.53;5113289;28;20119;-70
2023/08/28 08:05:10;;;;;;;9.45;7.60;;;;;;;-140.66;100.00;55571.53;5114258;28;20038;-69
2023/08/28 08:08:54;;;;;;;11.15;5.88;;;;;;;-140.66;100.00;55571.53;5113402;28;20027;-69
2023/08/28 08:12:39;;;;;;;12.93;5.70;;;;;;;-140.66;100.00;55571.53;5116178;28;20107;-70
2023/08/28 08:16:24;;;;;;;8.40;5.65;;;;;;;-140.66;100.00;55571.53;5118916;28;20039;-69
2023/08/28 08:20:10;;;;;;;7.00;5.32;;;;;;;-140.66;100.00;55571.53;5117310;28;20038;-70
2023/08/28 08:23:55;;;;;;;12.98;5.82;;;;;;;-140.66;100.00;55571.53;5117050;28;20023;-70
2023/08/28 08:27:39;;;;;;;7.70;5.55;;;;;;;-140.66;100.00;55571.53;5118276;28;20035;-70
2023/08/28 08:31:24;;;;;;;11.13;4.97;;;;;;;-140.66;100.00;55571.53;5117693;28;20038;-71
2023/08/28 08:35:08;;;;;;;17.25;5.80;;;;;;;-140.66;100.00;55571.53;5118525;28;20461;-69
2023/08/28 08:38:53;;;;;;;9.80;5.28;;;;;;;-140.66;100.00;55571.53;5117796;28;20059;-69
2023/08/28 08:42:38;;;;;;;16.88;4.78;;;;;;;-140.66;100.00;55571.53;5117814;28;20119;-69
2023/08/28 08:46:26;;;;;;;9.68;4.82;;;;;;;-140.66;100.00;55571.53;5116907;28;20084;-69
2023/08/28 08:50:12;;;;;;;11.77;5.40;;;;;;;-140.66;100.00;55571.53;5117698;28;20041;-69
2023/08/28 08:54:04;;;;;;;8.18;4.80;;;;;;;-140.66;100.00;55571.53;5117395;28;20365;-70
2023/08/28 08:57:53;;;;;;;10.30;4.80;;;;;;;-140.66;100.00;55571.53;5117937;28;20461;-70
2023/08/28 09:01:39;;;;;;;11.43;4.55;;;;;;;-140.66;100.00;55571.53;5118372;28;20433;-70
2023/08/28 09:05:24;;;;;;;12.80;4.93;;;;;;;-140.66;100.00;55571.53;5116956;28;20030;-70
2023/08/28 09:09:11;;;;;;;8.55;4.18;;;;;;;-140.66;100.00;55571.53;5116412;28;20390;-69
2023/08/28 09:12:55;;;;;;;10.50;3.92;;;;;;;-140.66;100.00;55571.53;5116390;28;20165;-70
2023/08/28 09:16:40;;;;;;;8.90;4.10;;;;;;;-140.66;100.00;55571.53;5117053;28;20055;-70
2023/08/28 09:20:24;;;;;;;7.40;3.60;;;;;;;-140.66;100.00;55571.53;5116345;28;20031;-70
2023/08/28 09:24:09;;;;;;;6.82;4.03;;;;;;;-140.66;100.00;55571.53;5115659;28;20086;-70
2023/08/28 09:27:54;;;;;;;6.53;3.35;;;;;;;-140.66;100.00;55571.53;5116358;28;20035;-70
2023/08/28 09:31:46;;;;;;;8.07;3.70;;;;;;;-140.66;100.00;55571.53;5117219;28;20437;-70
2023/08/28 09:35:38;;;;;;;5.75;3.20;;;;;;;-140.66;100.00;55571.53;5115651;28;20083;-70
2023/08/28 09:39:24;;;;;;;5.45;3.25;;;;;;;-140.66;100.00;55571.53;5117132;28;20168;-69
2023/08/28 09:43:12;;;;;;;4.50;3.35;;;;;;;-140.66;100.00;55571.53;5118002;28;20094;-69
2023/08/28 09:46:57;;;;;;;5.13;3.22;;;;;;;-140.66;100.00;55571.53;5116885;28;20032;-70
2023/08/28 09:50:43;;;;;;;7.40;3.03;;;;;;;-140.66;100.00;55571.53;5116767;28;20172;-70
2023/08/28 09:54:27;;;;;;;5.53;2.75;;;;;;;-140.66;100.00;55571.53;5117247;28;20042;-70
2023/08/28 09:58:14;;;;;;;8.23;3.45;;;;;;;-140.66;100.00;55571.53;5116014;28;20092;-70
2023/08/28 10:01:59;;;;;;;6.68;3.13;;;;;;;-140.66;100.00;55571.53;5115637;28;20457;-70
2023/08/28 10:05:44;;;;;;;9.32;3.50;;;;;;;-140.66;100.00;55571.53;5116595;28;20039;-70
2023/08/28 10:09:32;;;;;;;10.15;3.20;;;;;;;-140.66;100.00;55571.53;5114969;28;20051;-71
2023/08/28 10:13:23;;;;;;;7.20;3.30;;;;;;;-140.66;100.00;55571.53;5116800;28;20077;-70
2023/08/28 10:17:12;;;;;;;7.15;3.28;;;;;;;-140.66;100.00;55571.53;5116466;28;20030;-69
2023/08/28 10:20:57;;;;;;;6.07;3.70;;;;;;;-140.66;100.00;55571.53;5116886;28;20060;-70
2023/08/28 10:24:43;;;;;;;9.82;3.38;;;;;;;-140.66;100.00;55571.53;5116496;28;20196;-70
2023/08/28 10:28:28;;;;;;;11.30;3.60;;;;;;;-140.66;100.00;55571.53;5116193;28;20028;-69
2023/08/28 10:32:14;;;;;;;6.13;3.50;;;;;;;-140.66;100.00;55571.53;5116274;28;20058;-70
2023/08/28 10:35:59;;;;;;;10.00;3.30;;;;;;;-140.66;100.00;55571.53;5113705;28;20051;-69
2023/08/28 10:39:44;;;;;;;6.85;3.45;;;;;;;-140.66;100.00;55571.53;5115860;28;20019;-70
2023/08/28 10:43:29;;;;;;;6.03;3.20;;;;;;;-140.66;100.00;55571.53;5115381;28;20024;-70
2023/08/28 10:47:18;;;;;;;4.97;3.55;;;;;;;-140.66;100.00;55571.53;5115947;28;20027;-70
2023/08/28 10:51:03;;;;;;;7.28;3.50;;;;;;;-140.66;100.00;55571.53;5115786;28;20032;-69
2023/08/28 10:54:50;;;;;;;11.05;3.75;;;;;;;-140.66;100.00;55571.53;5114933;28;20460;-70
2023/08/28 10:58:37;;;;;;;9.32;3.58;;;;;;;-140.66;100.00;55571.53;5114198;28;20144;-70
2023/08/28 11:02:22;;;;;;;8.52;3.72;;;;;;;-140.66;100.00;55571.53;5114598;28;20127;-69
2023/08/28 11:06:30;;;;;;;5.95;3.30;;;;;;;-140.66;100.00;55571.53;5114534;28;20024;-70
2023/08/28 11:10:26;;;;;;;8.80;3.72;;;;;;;-140.66;100.00;55571.53;5115198;28;20104;-70
2023/08/28 11:14:18;;;;;;;6.05;3.60;;;;;;;-140.66;100.00;55571.53;5114281;28;20107;-70
2023/08/28 11:18:18;;;;;;;6.60;3.75;;;;;;;-140.66;100.00;55571.53;5114804;28;20119;-70
2023/08/28 11:22:03;;;;;;;10.38;3.63;;;;;;;-140.66;100.00;55571.53;5115245;28;20031;-71
2023/08/28 11:25:51;;;;;;;8.13;3.22;;;;;;;-140.66;100.00;55571.53;5114780;28;20055;-70
2023/08/28 11:29:42;;;;;;;5.60;3.28;;;;;;;-140.66;100.00;55571.53;5113139;28;20373;-70
2023/08/28 11:33:33;;;;;;;7.68;3.15;;;;;;;-140.66;100.00;55571.53;5114482;28;20034;-70
2023/08/28 11:37:33;;;;;;;13.88;3.47;;;;;;;-140.66;100.00;55571.53;5114723;28;20019;-70
2023/08/28 11:41:24;;;;;;;11.57;3.58;;;;;;;-140.66;100.00;55571.53;5115132;28;20016;-70
2023/08/28 11:45:18;;;;;;;5.47;3.20;;;;;;;-140.66;100.00;55571.53;5114216;28;20023;-70
2023/08/28 11:49:05;;;;;;;5.47;2.90;;;;;;;-140.66;100.00;55571.53;5113351;28;20047;-70
2023/08/28 11:52:52;;;;;;;3.90;2.88;;;;;;;-140.66;100.00;55571.53;5113234;28;20089;-70
2023/08/28 11:56:38;;;;;;;4.43;2.97;;;;;;;-140.66;100.00;55571.53;5114706;28;20441;-70
2023/08/28 12:00:23;;;;;;;4.15;2.97;;;;;;;-140.66;100.00;55571.53;5114203;28;20038;-70
2023/08/28 12:04:14;;;;;;;11.05;3.35;;;;;;;-140.66;100.00;55571.53;5113634;28;20019;-69
2023/08/28 12:07:59;;;;;;;7.82;3.42;;;;;;;-140.66;100.00;55571.53;5114182;28;20035;-71
2023/08/28 12:11:44;;;;;;;8.30;3.10;;;;;;;-140.66;100.00;55571.53;5114994;28;20476;-70
2023/08/28 12:15:34;;;;;;;15.18;3.70;;;;;;;-140.66;100.00;55571.53;5113676;28;20339;-71
2023/08/28 12:19:22;;;;;;;5.00;3.35;;;;;;;-140.66;100.00;55571.53;5113663;28;20031;-70
2023/08/28 12:23:06;;;;;;;13.77;3.72;;;;;;;-140.66;100.00;55571.53;5113942;28;20031;-69
2023/08/28 12:26:52;;;;;;;7.03;3.13;;;;;;;-140.66;100.00;55571.53;5126795;28;20469;-71
2023/08/28 12:30:39;;;;;;;8.82;3.25;;;;;;;-140.66;100.00;55571.53;5113144;28;20028;-70
2023/08/28 12:34:27;;;;;;;7.57;4.03;;;;;;;-140.66;100.00;55571.53;5113431;28;20115;-71
2023/08/28 12:38:12;;;;;;;6.93;3.80;;;;;;;-140.66;100.00;55571.53;5114432;28;20020;-69
2023/08/28 12:41:56;;;;;;;7.80;3.60;;;;;;;-140.66;100.00;55571.53;5113454;28;20129;-69
2023/08/28 12:45:42;;;;;;;7.55;3.80;;;;;;;-140.66;100.00;55571.53;5113272;28;20055;-70
2023/08/28 12:49:27;;;;;;;6.28;3.30;;;;;;;-140.66;100.00;55571.53;5112540;28;20071;-72
2023/08/28 12:53:11;;;;;;;8.30;3.55;;;;;;;-140.66;100.00;55571.53;5113912;28;20100;-70
2023/08/28 12:56:55;;;;;;;9.52;3.75;;;;;;;-140.66;100.00;55571.53;5114040;28;20028;-71
2023/08/28 13:00:39;;;;;;;5.25;3.53;;;;;;;-140.66;100.00;55571.53;5117350;28;20092;-70
2023/08/28 13:04:24;;;;;;;9.55;3.00;;;;;;;-140.66;100.00;55571.53;5116714;28;20016;-70
2023/08/28 13:08:08;;;;;;;8.88;3.38;;;;;;;-140.66;100.00;55571.53;5118345;28;20437;-70
2023/08/28 13:11:53;;;;;;;9.13;3.65;;;;;;;-140.66;100.00;55571.53;5116636;28;20035;-71
2023/08/28 13:15:37;;;;;;;10.27;3.65;;;;;;;-140.66;100.00;55571.53;5116679;28;20079;-70
2023/08/28 13:19:21;;;;;;;8.30;3.28;;;;;;;-140.66;100.00;55571.53;5116747;28;20456;-70
2023/08/28 13:23:06;;;;;;;5.40;2.80;;;;;;;-140.66;100.00;55571.53;5116099;28;20035;-70
2023/08/28 13:26:50;;;;;;;7.40;3.28;;;;;;;-140.66;100.00;55571.53;5130367;27;20048;-70
2023/08/28 13:30:34;;;;;;;12.25;3.40;;;;;;;-140.66;100.00;55571.53;5116685;28;20023;-70
2023/08/28 13:34:18;;;;;;;12.35;3.63;;;;;;;-140.66;100.00;55571.53;5117250;28;20035;-70
2023/08/28 13:38:06;;;;;;;10.68;2.95;;;;;;;-140.66;100.00;55571.53;5116011;28;20034;-71
2023/08/28 13:41:50;;;;;;;6.13;3.00;;;;;;;-140.66;100.00;55571.53;5116772;28;20030;-70
2023/08/28 13:45:34;;;;;;;10.75;3.30;;;;;;;-140.66;100.00;55571.53;5116215;28;20043;-70
2023/08/28 13:49:19;;;;;;;10.30;3.50;;;;;;;-140.66;100.00;55571.53;5115980;28;20057;-70
2023/08/28 13:53:04;;;;;;;8.27;3.00;;;;;;;-140.66;100.00;55571.53;5115969;28;20031;-70
2023/08/28 13:56:51;;;;;;;5.95;3.00;;;;;;;-140.66;100.00;55571.53;5115325;28;20096;-70
2023/08/28 14:00:35;;;;;;;17.73;3.63;;;;;;;-140.66;100.00;55571.53;5116730;28;20023;-71
2023/08/28 14:04:20;;;;;;;9.77;3.60;;;;;;;-140.66;100.00;55571.53;5115807;28;20172;-70
2023/08/28 14:08:04;;;;;;;12.13;3.70;;;;;;;-140.66;100.00;55571.53;5116543;28;20369;-71
2023/08/28 14:11:50;;;;;;;10.00;3.20;;;;;;;-140.66;100.00;55571.53;5115215;28;20027;-71
2023/08/28 14:15:35;;;;;;;8.35;3.05;;;;;;;-140.66;100.00;55571.53;5116218;28;20028;-71
2023/08/28 14:19:19;;;;;;;8.27;3.63;;;;;;;-140.66;100.00;55571.53;5115803;28;20047;-71
2023/08/28 14:23:04;;;;;;;14.23;3.35;;;;;;;-140.66;100.00;55571.53;5115810;28;20027;-70
2023/08/28 14:26:48;;;;;;;5.55;3.15;;;;;;;-140.66;100.00;55571.53;5115716;28;20027;-72
2023/08/28 14:30:33;;;;;;;12.60;7.22;;;;;;;-140.66;100.00;55571.53;5128629;27;20465;-71
2023/08/28 14:34:17;;;;;;;9.93;3.80;;;;;;;-140.66;100.00;55571.53;5114623;28;20118;-72
2023/08/28 14:38:02;;;;;;;8.27;3.40;;;;;;;-140.66;100.00;55571.53;5114977;28;20058;-72
2023/08/28 14:41:48;;;;;;;14.02;4.03;;;;;;;-140.66;100.00;55571.53;5115120;28;20040;-72
2023/08/28 14:45:32;;;;;;;12.75;3.83;;;;;;;-140.66;100.00;55571.53;5114784;28;20092;-71
2023/08/28 14:49:16;;;;;;;14.48;3.92;;;;;;;-140.66;100.00;55571.53;5114179;28;20047;-71
2023/08/28 14:53:01;;;;;;;10.85;3.35;;;;;;;-140.66;100.00;55571.53;5114572;28;20120;-71
2023/08/28 14:56:49;;;;;;;10.73;3.90;;;;;;;-140.66;100.00;55571.53;5115538;28;20042;-71
2023/08/28 15:00:36;;;;;;;7.30;3.75;;;;;;;-140.66;100.00;55571.53;5114454;28;20039;-71
2023/08/28 15:04:21;;;;;;;9.80;3.70;;;;;;;-140.66;100.00;55571.53;5115736;28;20027;-70
2023/08/28 15:08:05;;;;;;;10.98;3.83;;;;;;;-140.66;100.00;55571.53;5114392;28;20031;-71
2023/08/28 15:11:49;;;;;;;7.40;3.97;;;;;;;-140.66;100.00;55571.53;5113885;28;20034;-72
2023/08/28 15:15:34;;;;;;;7.72;3.85;;;;;;;-140.66;100.00;55571.53;5127908;27;20027;-71
2023/08/28 15:19:18;;;;;;;7.95;3.70;;;;;;;-140.66;100.00;55571.53;5114214;28;20441;-70
2023/08/28 15:23:03;;;;;;;8.60;3.40;;;;;;;-140.66;100.00;55571.53;5114042;28;20036;-71
2023/08/28 15:26:47;;;;;;;6.47;3.20;;;;;;;-140.66;100.00;55571.53;5113493;28;20027;-72
2023/08/28 15:30:32;;;;;;;5.97;3.40;;;;;;;-140.66;100.00;55571.53;5115651;28;20039;-71
2023/08/28 15:34:17;;;;;;;11.18;4.20;;;;;;;-140.66;100.00;55571.53;5115059;28;20106;-70
2023/08/28 15:38:01;;;;;;;8.15;4.07;;;;;;;-140.66;100.00;55571.53;5112935;28;20091;-69
2023/08/28 15:41:45;;;;;;;6.60;4.07;;;;;;;-140.66;100.00;55571.53;5113678;28;20069;-70
2023/08/28 15:45:30;;;;;;;8.23;4.10;;;;;;;-140.66;100.00;55571.53;5114142;28;20085;-71
2023/08/28 15:49:14;;;;;;;15.20;3.78;;;;;;;-140.66;100.00;55571.53;5112539;28;20050;-70
2023/08/28 15:52:58;;;;;;;7.28;3.47;;;;;;;-140.66;100.00;55571.53;5114849;28;20059;-70
2023/08/28 15:56:49;;;;;;;5.43;4.03;;;;;;;-140.66;100.00;55571.53;5114067;28;20023;-70
2023/08/28 16:00:33;;;;;;;8.18;3.67;;;;;;;-140.66;100.00;55571.53;5113443;28;20114;-70
2023/08/28 16:04:18;;;;;;;7.60;3.55;;;;;;;-140.66;100.00;55571.53;5113611;28;20353;-70
2023/08/28 16:08:03;;;;;;;10.02;3.85;;;;;;;-140.66;100.00;55571.53;5113512;28;20066;-71
2023/08/28 16:11:49;;;;;;;9.50;4.18;;;;;;;-140.66;100.00;55571.53;5113369;28;20088;-70
2023/08/28 16:15:34;;;;;;;13.27;4.20;;;;;;;-140.66;100.00;55571.53;5113174;28;20096;-70
2023/08/28 16:19:19;;;;;;;11.98;4.60;;;;;;;-140.66;100.00;55571.53;5113136;28;20034;-70
2023/08/28 16:23:03;;;;;;;12.85;3.95;;;;;;;-140.66;100.00;55571.53;5114627;28;20038;-71
2023/08/28 16:26:47;;;;;;;6.82;4.05;;;;;;;-140.66;100.00;55571.53;5113099;28;20110;-71
2023/08/28 16:30:32;;;;;;;17.35;4.97;;;;;;;-140.66;100.00;55571.53;5113384;28;20035;-71
2023/08/28 16:34:16;;;;;;;13.23;4.65;;;;;;;-140.66;100.00;55571.53;5117549;28;20050;-70
2023/08/28 16:38:00;;;;;;;8.88;3.90;;;;;;;-140.66;100.00;55571.53;5118205;28;20015;-69
2023/08/28 16:41:48;;;;;;;16.80;4.57;;;;;;;-140.66;100.00;55571.53;5116834;28;20146;-70
2023/08/28 16:45:32;;;;;;;10.27;4.35;;;;;;;-140.66;100.00;55571.53;5117772;28;20027;-70
2023/08/28 16:49:16;;;;;;;11.13;4.45;;;;;;;-140.66;100.00;55571.53;5117125;28;20500;-70
2023/08/28 16:53:00;;;;;;;7.97;3.88;;;;;;;-140.66;100.00;55571.53;5130551;27;20038;-69
2023/08/28 16:56:44;;;;;;;6.25;4.18;;;;;;;-140.66;100.00;55571.53;5117379;28;20057;-71